Time;durP1;ratioP1;P1;durP2;ratioP2;P2;SDS_P1;SDS_P2;PMS_P1;PMS_P2;Temp;Humidity;BMP_temperature;BMP_pressure;BME280_temperature;BME280_humidity;BME280_pressure;Samples;Min_cycle;Max_cycle;Signal;HPM_P1;HPM_P2
2023/08/23 00:01:38;;;;;;;21.73;13.05;;;;;;;24.00;nan;95542.72;5074389;28;20494;-80
2023/08/23 00:04:03;;;;;;;20.55;12.50;;;;;;;23.70;nan;95478.16;5074602;28;20131;-80
2023/08/23 00:06:28;;;;;;;24.00;12.63;;;;;;;24.02;nan;95535.03;5072743;28;20040;-80
2023/08/23 00:08:54;;;;;;;23.17;12.75;;;;;;;24.05;nan;95529.69;5073517;28;20040;-80
2023/08/23 00:11:19;;;;;;;20.20;12.63;;;;;;;24.10;nan;95543.00;5071974;28;20528;-80
2023/08/23 00:13:46;;;;;;;19.63;13.15;;;;;;;23.69;nan;95492.03;5072279;28;20037;-81
2023/08/23 00:16:12;;;;;;;21.80;13.43;;;;;;;23.13;nan;95415.56;5074071;28;20078;-80
2023/08/23 00:18:37;;;;;;;21.27;12.13;;;;;;;23.65;nan;95489.22;5071246;28;20035;-80
2023/08/23 00:21:03;;;;;;;18.33;12.65;;;;;;;23.30;nan;95466.66;5072093;28;20060;-80
2023/08/23 00:23:28;;;;;;;19.65;12.20;;;;;;;23.71;nan;95514.94;5073230;28;20092;-81
2023/08/23 00:25:54;;;;;;;20.17;13.25;;;;;;;23.76;nan;95519.31;5072703;28;20064;-80
2023/08/23 00:28:19;;;;;;;20.20;13.50;;;;;;;23.61;nan;95499.19;5072159;28;20040;-80
2023/08/23 00:30:52;;;;;;;24.25;13.55;;;;;;;23.60;nan;95535.53;5072516;28;20491;-81
2023/08/23 00:33:18;;;;;;;19.48;13.25;;;;;;;23.16;nan;95461.66;5056159;28;20028;-80
2023/08/23 00:35:43;;;;;;;16.85;12.52;;;;;;;23.19;nan;95468.31;5074230;28;20035;-80
2023/08/23 00:38:09;;;;;;;23.65;13.25;;;;;;;23.57;nan;95535.44;5073384;28;20391;-81
2023/08/23 00:40:34;;;;;;;19.45;12.60;;;;;;;23.11;nan;95464.63;5073811;28;20040;-80
2023/08/23 00:43:00;;;;;;;17.85;13.38;;;;;;;23.20;nan;95499.63;5072330;28;20047;-80
2023/08/23 00:45:26;;;;;;;24.60;12.88;;;;;;;23.43;nan;95524.97;5071575;28;20036;-80
2023/08/23 00:47:52;;;;;;;18.05;12.95;;;;;;;23.41;nan;95529.97;5071625;28;20036;-80
2023/08/23 00:50:17;;;;;;;19.63;13.13;;;;;;;23.28;nan;95526.53;5073186;28;20051;-80
2023/08/23 00:52:43;;;;;;;18.40;12.88;;;;;;;22.83;nan;95461.91;5071635;28;20033;-80
2023/08/23 00:55:08;;;;;;;19.67;13.13;;;;;;;23.18;nan;95494.56;5071205;28;20032;-80
2023/08/23 00:57:34;;;;;;;16.58;12.27;;;;;;;23.14;nan;95507.22;5073086;28;20491;-80
2023/08/23 01:00:00;;;;;;;20.75;13.07;;;;;;;23.25;nan;95529.16;5071758;28;20174;-80
2023/08/23 01:02:25;;;;;;;19.38;12.60;;;;;;;23.14;nan;95498.31;5051353;28;20029;-80
2023/08/23 01:04:51;;;;;;;18.08;13.30;;;;;;;23.22;nan;95503.56;5053797;28;20055;-80
2023/08/23 01:07:23;;;;;;;18.38;11.80;;;;;;;22.85;nan;95481.31;5071573;28;20060;-80
2023/08/23 01:10:12;;;;;;;17.35;13.68;;;;;;;23.14;nan;95523.44;5072605;28;20032;-80
2023/08/23 01:12:50;;;;;;;25.83;12.73;;;;;;;23.10;nan;95525.28;5055267;28;20440;-81
2023/08/23 01:15:19;;;;;;;20.58;13.15;;;;;;;22.89;nan;95505.72;5070250;28;20451;-80
2023/08/23 01:17:47;;;;;;;17.38;12.57;;;;;;;22.80;nan;95486.97;5054126;28;20040;-80
2023/08/23 01:20:14;;;;;;;17.02;12.77;;;;;;;22.99;nan;95519.56;5071415;28;20067;-80
2023/08/23 01:22:48;;;;;;;23.08;12.45;;;;;;;23.09;nan;95532.59;5072268;28;20043;-80
2023/08/23 01:25:14;;;;;;;22.05;13.13;;;;;;;23.08;nan;95538.34;5063606;28;20568;-80
2023/08/23 01:27:39;;;;;;;17.00;13.68;;;;;;;22.90;nan;95508.09;5072492;28;20043;-80
2023/08/23 01:30:06;;;;;;;16.90;12.55;;;;;;;23.09;nan;95515.56;5057674;28;20454;-80
2023/08/23 01:32:43;;;;;;;17.42;13.48;;;;;;;23.21;nan;95526.34;5084154;28;20517;-80
2023/08/23 01:35:16;;;;;;;21.10;12.80;;;;;;;23.24;nan;95522.94;5069423;28;20204;-80
2023/08/23 01:37:45;;;;;;;21.38;12.90;;;;;;;23.30;nan;95526.19;5082855;28;20085;-80
2023/08/23 01:40:11;;;;;;;19.30;12.82;;;;;;;22.86;nan;95471.28;5063116;28;20040;-80
2023/08/23 01:42:39;;;;;;;17.75;12.65;;;;;;;22.98;nan;95492.84;5070658;28;20050;-80
2023/08/23 01:45:07;;;;;;;15.82;12.00;;;;;;;23.21;nan;95526.34;5067808;28;20029;-80
2023/08/23 01:47:32;;;;;;;18.38;12.45;;;;;;;23.14;nan;95519.94;5070001;28;20032;-81
2023/08/23 01:49:58;;;;;;;20.83;12.50;;;;;;;22.87;nan;95489.06;5068772;28;20054;-80
2023/08/23 01:52:23;;;;;;;21.60;12.15;;;;;;;23.01;nan;95506.47;5053538;28;20041;-80
2023/08/23 01:54:49;;;;;;;17.52;12.85;;;;;;;22.97;nan;95516.41;5070945;28;20047;-80
2023/08/23 01:57:14;;;;;;;18.83;13.07;;;;;;;22.87;nan;95519.59;5058105;28;20033;-80
2023/08/23 01:59:39;;;;;;;18.40;12.02;;;;;;;22.63;nan;95470.97;5071115;28;20060;-80
2023/08/23 02:02:05;;;;;;;18.05;11.95;;;;;;;23.07;nan;95525.94;5071884;28;20035;-81
2023/08/23 02:04:30;;;;;;;20.35;12.65;;;;;;;23.01;nan;95519.22;5072045;28;20032;-80
2023/08/23 02:06:56;;;;;;;18.23;12.85;;;;;;;22.87;nan;95487.16;5072120;28;20102;-80
2023/08/23 02:09:21;;;;;;;20.40;11.98;;;;;;;23.15;nan;95535.84;5073052;28;20036;-80
2023/08/23 02:11:47;;;;;;;29.05;13.93;;;;;;;23.04;nan;95519.31;5072574;28;20036;-80
2023/08/23 02:14:12;;;;;;;19.30;13.00;;;;;;;23.05;nan;95512.75;5071031;28;20092;-80
2023/08/23 02:16:37;;;;;;;19.80;13.55;;;;;;;23.13;nan;95519.16;5072355;28;20056;-80
2023/08/23 02:19:03;;;;;;;18.25;12.48;;;;;;;22.87;nan;95508.78;5072742;28;20051;-80
2023/08/23 02:21:29;;;;;;;19.02;13.23;;;;;;;22.80;nan;95489.66;5072067;28;20036;-80
2023/08/23 02:23:55;;;;;;;19.95;12.65;;;;;;;22.78;nan;95489.22;5069602;28;20024;-80
2023/08/23 02:26:20;;;;;;;17.70;13.38;;;;;;;22.95;nan;95513.28;5070318;28;20043;-80
2023/08/23 02:28:46;;;;;;;16.77;11.77;;;;;;;22.67;nan;95477.25;5070414;28;20032;-80
2023/08/23 02:31:11;;;;;;;17.75;12.68;;;;;;;22.83;nan;95494.38;5072437;28;20070;-80
2023/08/23 02:33:36;;;;;;;17.33;13.30;;;;;;;22.83;nan;95510.59;5073882;28;20028;-80
2023/08/23 02:36:02;;;;;;;20.75;12.98;;;;;;;22.66;nan;95473.78;5074768;28;20028;-80
2023/08/23 02:38:27;;;;;;;26.98;14.20;;;;;;;22.96;nan;95527.59;5074207;28;20111;-80
2023/08/23 02:40:56;;;;;;;18.42;13.07;;;;;;;22.48;nan;95447.38;5075423;28;20475;-80
2023/08/23 02:43:22;;;;;;;18.63;14.30;;;;;;;22.41;nan;95450.66;5075139;28;20089;-80
2023/08/23 02:45:48;;;;;;;21.98;13.98;;;;;;;22.52;nan;95462.56;5073515;28;20131;-80
2023/08/23 02:48:14;;;;;;;21.67;13.60;;;;;;;22.72;nan;95487.84;5075282;28;20032;-80
2023/08/23 02:50:42;;;;;;;20.20;12.60;;;;;;;22.45;nan;95443.44;5073100;28;20139;-80
2023/08/23 02:53:07;;;;;;;21.17;13.38;;;;;;;22.37;nan;95435.47;5073240;28;20139;-80
2023/08/23 02:55:37;;;;;;;19.42;13.50;;;;;;;22.94;nan;95522.50;5073565;28;20483;-80
2023/08/23 02:58:03;;;;;;;24.15;13.75;;;;;;;23.01;nan;95525.41;5073599;28;20433;-80
2023/08/23 03:00:29;;;;;;;21.05;12.65;;;;;;;22.96;nan;95512.13;5074756;28;20499;-80
2023/08/23 03:02:54;;;;;;;18.50;13.20;;;;;;;22.86;nan;95506.44;5074319;28;20107;-80
2023/08/23 03:05:20;;;;;;;24.42;13.30;;;;;;;22.87;nan;95529.63;5072884;28;20036;-80
2023/08/23 03:07:45;;;;;;;19.88;13.13;;;;;;;22.54;nan;95467.63;5074655;28;20044;-80
2023/08/23 03:10:12;;;;;;;20.23;13.35;;;;;;;22.70;nan;95519.84;5073302;28;20070;-80
2023/08/23 03:12:37;;;;;;;25.13;13.80;;;;;;;22.46;nan;95477.44;5075261;28;20035;-80
2023/08/23 03:15:03;;;;;;;21.13;13.55;;;;;;;22.60;nan;95507.59;5072434;28;20037;-79
2023/08/23 03:17:28;;;;;;;18.08;12.88;;;;;;;22.24;nan;95470.63;5073028;28;20463;-80
2023/08/23 03:19:56;;;;;;;22.73;12.70;;;;;;;22.17;nan;95461.50;5072688;28;20057;-80
2023/08/23 03:22:21;;;;;;;18.02;13.30;;;;;;;22.46;nan;95515.28;5073627;28;20132;-80
2023/08/23 03:24:46;;;;;;;20.30;12.95;;;;;;;21.69;nan;95394.81;5072644;28;20037;-80
2023/08/23 03:27:12;;;;;;;23.05;13.27;;;;;;;22.53;nan;95514.69;5073997;28;20036;-80
2023/08/23 03:29:37;;;;;;;19.75;13.23;;;;;;;22.38;nan;95475.66;5074708;28;20127;-80
2023/08/23 03:32:03;;;;;;;16.00;13.27;;;;;;;22.60;nan;95526.50;5072621;28;20036;-80
2023/08/23 03:34:28;;;;;;;22.17;13.27;;;;;;;22.27;nan;95477.28;5074162;28;20044;-81
2023/08/23 03:36:54;;;;;;;23.85;13.25;;;;;;;22.46;nan;95503.69;5074350;28;20123;-80
2023/08/23 03:39:19;;;;;;;26.33;14.93;;;;;;;22.47;nan;95530.38;5074608;28;20425;-80
2023/08/23 03:41:46;;;;;;;20.23;14.60;;;;;;;22.20;nan;95466.25;5076086;28;20123;-80
2023/08/23 03:44:12;;;;;;;23.63;14.68;;;;;;;22.53;nan;95512.00;5074231;28;20036;-81
2023/08/23 03:46:37;;;;;;;20.75;14.88;;;;;;;22.42;nan;95503.59;5074120;28;20483;-80
2023/08/23 03:49:03;;;;;;;22.58;14.32;;;;;;;22.44;nan;95514.81;5075414;28;20040;-80
2023/08/23 03:51:28;;;;;;;18.27;14.02;;;;;;;22.51;nan;95525.84;5074273;28;20426;-80
2023/08/23 03:53:54;;;;;;;24.85;14.82;;;;;;;22.51;nan;95525.06;5076650;28;20040;-80
2023/08/23 03:56:19;;;;;;;27.50;14.32;;;;;;;22.36;nan;95521.13;5074978;28;20039;-80
2023/08/23 03:58:44;;;;;;;24.70;15.73;;;;;;;22.46;nan;95528.78;5074539;28;20048;-80
2023/08/23 04:01:10;;;;;;;30.00;15.38;;;;;;;22.15;nan;95467.25;5074561;28;20392;-80
2023/08/23 04:03:35;;;;;;;23.38;14.93;;;;;;;22.20;nan;95522.97;5075807;28;20096;-80
2023/08/23 04:06:02;;;;;;;36.40;15.70;;;;;;;22.21;nan;95498.31;5074194;28;20071;-80
2023/08/23 04:08:27;;;;;;;24.73;15.38;;;;;;;22.32;nan;95488.63;5076187;28;20041;-80
2023/08/23 04:10:53;;;;;;;29.35;15.88;;;;;;;22.42;nan;95500.88;5073574;28;20032;-80
2023/08/23 04:13:18;;;;;;;24.65;15.25;;;;;;;22.35;nan;95499.88;5075596;28;20387;-80
2023/08/23 04:15:44;;;;;;;29.85;16.90;;;;;;;22.40;nan;95507.75;5076260;28;20036;-80
2023/08/23 04:18:10;;;;;;;29.60;15.18;;;;;;;22.08;nan;95469.75;5074376;28;20083;-80
2023/08/23 04:20:36;;;;;;;29.25;15.23;;;;;;;22.15;nan;95464.56;5075622;28;20080;-81
2023/08/23 04:23:02;;;;;;;26.85;15.80;;;;;;;22.21;nan;95481.31;5074291;28;20043;-80
2023/08/23 04:25:27;;;;;;;28.70;16.08;;;;;;;22.00;nan;95459.84;5075826;28;20064;-81
2023/08/23 04:27:52;;;;;;;25.48;15.57;;;;;;;22.40;nan;95522.06;5073991;28;20036;-81
2023/08/23 04:30:18;;;;;;;22.35;14.65;;;;;;;22.10;nan;95453.19;5074902;28;20059;-81
2023/08/23 04:32:44;;;;;;;20.65;15.50;;;;;;;22.29;nan;95483.88;5074257;28;20099;-81
2023/08/23 04:35:09;;;;;;;24.00;15.70;;;;;;;22.62;nan;95526.97;5074399;28;20340;-81
2023/08/23 04:37:34;;;;;;;31.30;16.25;;;;;;;22.47;nan;95480.94;5074368;28;20029;-81
2023/08/23 04:40:00;;;;;;;25.10;16.13;;;;;;;22.75;nan;95508.81;5074000;28;20044;-81
2023/08/23 04:42:25;;;;;;;24.55;16.17;;;;;;;22.50;nan;95502.66;5075289;28;20047;-81
2023/08/23 04:44:51;;;;;;;21.92;15.73;;;;;;;22.13;nan;95447.88;5073325;28;20043;-82
2023/08/23 04:47:16;;;;;;;34.67;16.38;;;;;;;22.52;nan;95519.31;5070649;28;20028;-82
2023/08/23 04:49:43;;;;;;;35.00;16.52;;;;;;;22.64;nan;95538.22;5071368;28;20036;-82
2023/08/23 04:52:08;;;;;;;27.15;16.23;;;;;;;22.57;nan;95512.91;5073136;28;20032;-81
2023/08/23 04:54:34;;;;;;;31.13;16.83;;;;;;;22.67;nan;95531.34;5072050;28;20499;-81
2023/08/23 04:56:59;;;;;;;24.33;16.13;;;;;;;22.37;nan;95486.81;5071174;28;20055;-82
2023/08/23 04:59:24;;;;;;;24.17;15.00;;;;;;;22.64;nan;95524.72;5071514;28;20044;-82
2023/08/23 05:01:50;;;;;;;26.30;16.92;;;;;;;22.52;nan;95507.72;5071346;28;20476;-82
2023/08/23 05:04:18;;;;;;;26.67;17.48;;;;;;;22.41;nan;95482.31;5072050;28;20037;-81
2023/08/23 05:06:43;;;;;;;25.73;16.35;;;;;;;22.71;nan;95534.94;5071520;28;20032;-81
2023/08/23 05:09:09;;;;;;;27.52;16.48;;;;;;;22.71;nan;95529.53;5072566;28;20035;-82
2023/08/23 05:11:34;;;;;;;24.00;16.13;;;;;;;22.85;nan;95524.56;5069844;28;20454;-82
2023/08/23 05:14:00;;;;;;;28.38;16.63;;;;;;;22.81;nan;95534.47;5066635;28;20633;-81
2023/08/23 05:16:25;;;;;;;31.20;17.17;;;;;;;22.85;nan;95538.09;5060532;28;20035;-82
2023/08/23 05:18:50;;;;;;;30.77;17.50;;;;;;;22.97;nan;95529.13;5090832;28;20174;-82
2023/08/23 05:21:16;;;;;;;28.55;17.20;;;;;;;23.06;nan;95527.88;5069173;28;20056;-82
2023/08/23 05:23:41;;;;;;;26.80;17.20;;;;;;;23.18;nan;95532.47;5072173;28;20146;-82
2023/08/23 05:26:07;;;;;;;24.15;17.38;;;;;;;23.25;nan;95531.84;5071431;28;20534;-82
2023/08/23 05:28:32;;;;;;;25.67;18.00;;;;;;;23.35;nan;95539.47;5071425;28;20068;-82
2023/08/23 05:30:58;;;;;;;27.23;17.63;;;;;;;23.28;nan;95523.81;5071539;28;20044;-81
2023/08/23 05:33:23;;;;;;;30.98;18.00;;;;;;;23.31;nan;95516.94;5071657;28;20111;-81
2023/08/23 05:35:49;;;;;;;27.48;17.17;;;;;;;23.38;nan;95517.91;5053513;28;20036;-81
2023/08/23 05:38:14;;;;;;;25.45;17.00;;;;;;;23.25;nan;95489.34;5069421;28;20043;-81
2023/08/23 05:40:40;;;;;;;23.65;16.27;;;;;;;23.57;nan;95538.94;5060013;28;20480;-81
2023/08/23 05:43:06;;;;;;;24.30;15.95;;;;;;;23.67;nan;95532.22;5067289;28;20036;-81
2023/08/23 05:45:32;;;;;;;25.65;16.65;;;;;;;23.29;nan;95471.28;5069964;28;20051;-81
2023/08/23 05:47:59;;;;;;;28.20;16.15;;;;;;;23.77;nan;95529.78;5071133;28;20040;-81
2023/08/23 05:50:24;;;;;;;22.33;15.80;;;;;;;23.52;nan;95476.13;5069818;28;20484;-81
2023/08/23 05:52:50;;;;;;;25.92;17.23;;;;;;;23.40;nan;95452.63;5071866;28;20104;-81
2023/08/23 05:55:16;;;;;;;33.15;16.27;;;;;;;23.67;nan;95480.78;5072331;28;20024;-80
2023/08/23 05:57:41;;;;;;;29.60;15.95;;;;;;;23.55;nan;95460.00;5074270;28;20497;-81
2023/08/23 06:00:07;;;;;;;24.02;16.30;;;;;;;23.90;nan;95506.09;5055739;28;20098;-82
2023/08/23 06:02:33;;;;;;;31.58;17.40;;;;;;;23.91;nan;95504.19;5073643;28;20078;-80
2023/08/23 06:04:58;;;;;;;27.13;15.80;;;;;;;23.67;nan;95453.69;5073430;28;20115;-80
2023/08/23 06:07:24;;;;;;;24.67;16.92;;;;;;;24.12;nan;95524.44;5072014;28;20375;-80
2023/08/23 06:09:50;;;;;;;28.25;15.80;;;;;;;23.91;nan;95493.34;5072457;28;20060;-80
2023/08/23 06:12:15;;;;;;;24.13;12.85;;;;;;;23.49;nan;95452.50;5074370;28;20029;-80
2023/08/23 06:14:40;;;;;;;14.65;12.05;;;;;;;24.16;nan;95524.53;5068909;28;20052;-80
2023/08/23 06:17:06;;;;;;;27.33;15.52;;;;;;;23.87;nan;95470.81;5072067;28;20036;-80
2023/08/23 06:19:32;;;;;;;30.08;16.65;;;;;;;24.04;nan;95478.56;5071253;28;20570;-80
2023/08/23 06:21:58;;;;;;;33.35;15.38;;;;;;;24.11;nan;95492.28;5070896;28;20550;-80
2023/08/23 06:24:24;;;;;;;24.20;15.85;;;;;;;24.28;nan;95520.94;5071666;28;20090;-80
2023/08/23 06:26:50;;;;;;;30.80;15.52;;;;;;;23.98;nan;95477.25;5071609;28;20036;-80
2023/08/23 06:29:16;;;;;;;26.33;15.90;;;;;;;24.16;nan;95486.59;5073272;28;20185;-80
2023/08/23 06:31:42;;;;;;;25.23;15.77;;;;;;;24.31;nan;95496.66;5072624;28;20570;-80
2023/08/23 06:34:07;;;;;;;28.38;14.52;;;;;;;24.44;nan;95519.78;5072468;28;20059;-80
2023/08/23 06:36:32;;;;;;;24.10;16.42;;;;;;;24.31;nan;95479.59;5066722;28;20062;-80
2023/08/23 06:38:58;;;;;;;28.15;15.73;;;;;;;24.32;nan;95481.19;5065473;28;20040;-80
2023/08/23 06:41:23;;;;;;;22.13;13.40;;;;;;;24.37;nan;95494.44;5064894;28;20517;-80
2023/08/23 06:43:49;;;;;;;20.58;14.30;;;;;;;24.51;nan;95506.38;5069975;28;20464;-81
2023/08/23 06:46:14;;;;;;;22.45;14.30;;;;;;;24.43;nan;95493.81;5072325;28;20037;-80
2023/08/23 06:48:40;;;;;;;20.23;14.45;;;;;;;24.59;nan;95510.81;5069974;28;20036;-81
2023/08/23 06:51:06;;;;;;;26.80;14.48;;;;;;;24.51;nan;95486.63;5070257;28;20051;-80
2023/08/23 06:53:33;;;;;;;28.52;13.30;;;;;;;24.54;nan;95477.78;5072103;28;20028;-80
2023/08/23 06:55:58;;;;;;;21.70;13.02;;;;;;;24.68;nan;95501.72;5072622;28;20032;-80
2023/08/23 06:58:24;;;;;;;23.95;13.80;;;;;;;24.29;nan;95428.47;5072095;28;20485;-80
2023/08/23 07:00:49;;;;;;;22.52;13.98;;;;;;;24.76;nan;95506.94;5070506;28;20050;-80
2023/08/23 07:03:15;;;;;;;19.23;13.93;;;;;;;24.92;nan;95529.38;5070268;28;20047;-81
2023/08/23 07:05:41;;;;;;;26.17;14.30;;;;;;;24.84;nan;95499.72;5071573;28;20037;-81
2023/08/23 07:08:06;;;;;;;25.92;13.68;;;;;;;24.65;nan;95467.16;5071807;28;20036;-81
2023/08/23 07:10:32;;;;;;;18.38;14.20;;;;;;;24.86;nan;95476.53;5069584;28;20092;-81
2023/08/23 07:12:57;;;;;;;24.98;14.60;;;;;;;25.01;nan;95493.91;5070137;28;20398;-81
2023/08/23 07:15:23;;;;;;;27.13;13.48;;;;;;;24.57;nan;95417.41;5069730;28;20256;-81
2023/08/23 07:17:49;;;;;;;22.25;14.60;;;;;;;25.25;nan;95522.69;5070525;28;20486;-82
2023/08/23 07:20:15;;;;;;;19.88;14.68;;;;;;;25.29;nan;95518.88;5073030;28;20439;-82
2023/08/23 07:22:41;;;;;;;27.30;15.05;;;;;;;24.82;nan;95431.47;5074506;28;20052;-82
2023/08/23 07:25:07;;;;;;;17.88;13.65;;;;;;;24.70;nan;95407.22;5076135;28;20032;-87
2023/08/23 07:27:33;;;;;;;24.05;14.00;;;;;;;25.46;nan;95514.94;5076848;28;20051;-86
2023/08/23 07:29:59;;;;;;;20.73;13.40;;;;;;;25.61;nan;95521.44;5076318;28;20142;-83
2023/08/23 07:32:30;;;;;;;25.70;15.40;;;;;;;25.47;nan;95483.91;5076367;28;20031;-83
2023/08/23 07:34:56;;;;;;;26.50;14.68;;;;;;;25.31;nan;95448.72;5075670;28;20029;-83
2023/08/23 07:37:21;;;;;;;24.23;15.20;;;;;;;25.64;nan;95488.09;5077002;28;20035;-83
2023/08/23 07:39:47;;;;;;;23.95;15.82;;;;;;;25.83;nan;95506.28;5072325;28;20371;-82
2023/08/23 07:42:12;;;;;;;23.00;15.07;;;;;;;25.86;nan;95508.28;5079476;28;20029;-82
2023/08/23 07:44:37;;;;;;;20.95;13.73;;;;;;;25.77;nan;95491.44;5078163;28;20028;-81
2023/08/23 07:47:03;;;;;;;22.95;13.73;;;;;;;25.83;nan;95487.28;5073094;28;20032;-81
2023/08/23 07:49:28;;;;;;;25.17;13.40;;;;;;;25.72;nan;95463.41;5074509;28;20029;-84
2023/08/23 07:51:54;;;;;;;16.55;12.65;;;;;;;25.93;nan;95483.94;5075222;28;20074;-83
2023/08/23 07:54:20;;;;;;;20.48;13.98;;;;;;;25.95;nan;95485.13;5074296;28;20028;-82
2023/08/23 07:56:45;;;;;;;20.58;12.93;;;;;;;25.85;nan;95455.09;5076687;28;20097;-83
2023/08/23 07:59:10;;;;;;;18.75;13.00;;;;;;;26.27;nan;95499.25;5074372;28;20055;-84
2023/08/23 08:01:37;;;;;;;21.92;13.25;;;;;;;26.21;nan;95489.03;5074437;28;20486;-86
2023/08/23 08:04:02;;;;;;;18.08;11.68;;;;;;;26.07;nan;95454.28;5077175;28;20028;-84
2023/08/23 08:06:28;;;;;;;19.20;12.05;;;;;;;26.22;nan;95472.34;5075750;28;20043;-85
2023/08/23 08:08:53;;;;;;;21.90;13.00;;;;;;;26.34;nan;95471.38;5076010;28;20058;-85
2023/08/23 08:11:19;;;;;;;24.75;12.93;;;;;;;26.54;nan;95491.88;5076915;28;20086;-85
2023/08/23 08:13:45;;;;;;;22.25;11.55;;;;;;;26.56;nan;95480.63;5077616;28;20040;-82
2023/08/23 08:16:12;;;;;;;26.67;13.52;;;;;;;26.19;nan;95428.81;5080561;28;20086;-84
2023/08/23 08:18:38;;;;;;;27.10;13.07;;;;;;;26.63;nan;95475.25;5080316;28;20064;-82
2023/08/23 08:21:04;;;;;;;30.67;14.05;;;;;;;26.42;nan;95426.81;5080025;28;20056;-82
2023/08/23 08:23:30;;;;;;;17.00;12.95;;;;;;;26.55;nan;95439.03;5081794;28;20466;-82
2023/08/23 08:25:56;;;;;;;18.58;12.63;;;;;;;26.74;nan;95449.78;5079892;28;20040;-83
2023/08/23 08:28:21;;;;;;;21.23;13.55;;;;;;;27.04;nan;95476.22;5082871;28;20105;-88
2023/08/23 08:30:47;;;;;;;28.27;14.43;;;;;;;27.07;nan;95481.69;5081432;28;20032;-88
2023/08/23 08:33:13;;;;;;;22.50;13.00;;;;;;;27.02;nan;95467.63;5037080;22;20054;-81
2023/08/23 08:35:39;;;;;;;21.92;13.00;;;;;;;27.06;nan;95471.19;5005320;28;20559;-80
2023/08/23 08:38:05;;;;;;;19.45;12.57;;;;;;;26.87;nan;95421.16;5001839;28;20056;-82
2023/08/23 08:40:31;;;;;;;25.15;12.00;;;;;;;27.11;nan;95449.84;5001780;28;20425;-81
2023/08/23 08:42:57;;;;;;;21.65;12.35;;;;;;;27.31;nan;95461.34;5007613;28;20027;-82
2023/08/23 08:45:23;;;;;;;24.73;11.98;;;;;;;27.26;nan;95453.50;4999694;28;20034;-81
2023/08/23 08:47:50;;;;;;;17.23;12.50;;;;;;;27.30;nan;95448.88;5001477;28;20398;-81
2023/08/23 08:50:16;;;;;;;17.92;12.55;;;;;;;27.59;nan;95469.81;4985592;28;20468;-82
2023/08/23 08:52:51;;;;;;;18.40;12.13;;;;;;;27.69;nan;95475.75;4993624;28;20034;-83
2023/08/23 08:55:19;;;;;;;21.95;12.20;;;;;;;27.64;nan;95460.50;4991163;28;20026;-82
2023/08/23 08:57:46;;;;;;;19.48;11.35;;;;;;;27.66;nan;95444.59;5000687;28;20184;-81
2023/08/23 09:00:12;;;;;;;14.80;10.32;;;;;;;27.70;nan;95433.69;4999632;28;20093;-81
2023/08/23 09:02:39;;;;;;;18.08;12.00;;;;;;;28.00;nan;95461.59;4984859;28;20027;-81
2023/08/23 09:05:06;;;;;;;17.20;11.20;;;;;;;28.02;nan;95451.88;5000082;28;20034;-82
2023/08/23 09:07:32;;;;;;;22.35;10.52;;;;;;;28.01;nan;95433.16;4997475;28;20046;-82
2023/08/23 09:09:58;;;;;;;24.67;10.98;;;;;;;28.13;nan;95441.06;4995489;28;20023;-82
2023/08/23 09:12:23;;;;;;;16.38;9.73;;;;;;;28.18;nan;95431.75;4983437;28;20030;-82
2023/08/23 09:14:49;;;;;;;17.60;10.40;;;;;;;28.38;nan;95442.00;4994361;28;20037;-82
2023/08/23 09:17:15;;;;;;;14.93;9.07;;;;;;;28.32;nan;95418.19;5004434;28;20026;-81
2023/08/23 09:19:41;;;;;;;17.10;8.93;;;;;;;28.56;nan;95439.38;5001290;28;20090;-82
2023/08/23 09:22:06;;;;;;;12.65;8.45;;;;;;;28.38;nan;95412.00;4991235;28;20038;-82
2023/08/23 09:24:33;;;;;;;14.70;8.55;;;;;;;28.40;nan;95384.34;5007021;28;20026;-82
2023/08/23 09:26:59;;;;;;;14.15;9.13;;;;;;;28.49;nan;95378.53;5004250;28;20038;-81
2023/08/23 09:29:25;;;;;;;12.82;9.65;;;;;;;28.59;nan;95391.47;5004992;28;20052;-82
2023/08/23 09:33:11;;;;;;;13.27;8.82;;;;;;;28.98;39.50;95429.84;5146551;27;20121;-81
2023/08/23 09:35:47;;;;;;;10.32;8.13;;;;;;;28.98;39.84;95408.00;5120721;28;20039;-81
2023/08/23 09:38:18;;;;;;;12.75;8.43;;;;;;;29.18;39.06;95423.66;5120953;28;20091;-83
2023/08/23 09:40:44;;;;;;;14.43;8.13;;;;;;;28.79;38.71;95341.66;5119870;28;20087;-82
2023/08/23 09:43:11;;;;;;;13.38;8.35;;;;;;;29.36;38.69;95418.25;5116026;28;20070;-82
2023/08/23 09:45:37;;;;;;;13.70;9.05;;;;;;;29.36;39.12;95401.09;5110812;28;20091;-82
2023/08/23 09:48:05;;;;;;;15.73;9.10;;;;;;;29.42;39.20;95403.03;5121353;28;20462;-82
2023/08/23 09:50:32;;;;;;;12.93;9.15;;;;;;;29.36;39.23;95377.28;5123235;28;20046;-81
2023/08/23 09:53:06;;;;;;;10.57;8.98;;;;;;;29.43;38.86;95369.09;5139404;28;20035;-81
2023/08/23 09:55:35;;;;;;;20.70;9.25;;;;;;;29.77;38.59;95383.13;5143237;28;20087;-82
2023/08/23 09:58:02;;;;;;;12.07;9.05;;;;;;;30.09;38.26;95349.53;5124088;28;20394;-81
2023/08/23 10:00:28;;;;;;;10.95;7.85;;;;;;;31.00;36.34;95372.25;5119722;28;20031;-81
2023/08/23 10:02:56;;;;;;;9.25;7.78;;;;;;;31.91;34.91;95377.50;5129581;28;20038;-81
2023/08/23 10:05:22;;;;;;;12.98;8.23;;;;;;;32.71;33.13;95357.88;5090124;28;20058;-82
2023/08/23 10:07:48;;;;;;;10.95;7.65;;;;;;;33.46;32.18;95385.91;5117414;28;20027;-81
2023/08/23 10:10:14;;;;;;;9.40;7.35;;;;;;;34.25;29.91;95372.44;5121879;28;20119;-81
2023/08/23 10:12:42;;;;;;;13.10;7.40;;;;;;;35.14;28.76;95382.44;5120610;28;20074;-81
2023/08/23 10:15:11;;;;;;;10.45;7.65;;;;;;;35.69;27.52;95369.00;5124789;28;20027;-81
2023/08/23 10:17:38;;;;;;;10.80;7.28;;;;;;;36.39;26.57;95380.25;5112071;28;20068;-81
2023/08/23 10:20:07;;;;;;;14.43;7.15;;;;;;;37.18;25.34;95382.38;5132827;28;20027;-82
2023/08/23 10:22:33;;;;;;;8.13;6.40;;;;;;;37.63;24.73;95382.19;5102520;28;20015;-81
2023/08/23 10:24:58;;;;;;;13.32;6.43;;;;;;;37.65;24.78;95354.84;5139544;28;20070;-82
2023/08/23 10:27:25;;;;;;;9.45;6.43;;;;;;;37.52;23.49;95331.16;5117903;28;20038;-81
2023/08/23 10:29:51;;;;;;;13.20;6.80;;;;;;;37.61;23.62;95361.72;5138869;28;20537;-81
2023/08/23 10:32:17;;;;;;;8.40;6.72;;;;;;;38.04;23.47;95356.34;5108619;28;20043;-81
2023/08/23 10:34:42;;;;;;;12.88;6.25;;;;;;;38.15;23.19;95370.56;5132544;28;20046;-82
2023/08/23 10:37:19;;;;;;;9.52;5.88;;;;;;;38.48;22.68;95370.25;5112843;28;20027;-80
2023/08/23 10:39:51;;;;;;;8.32;6.30;;;;;;;38.70;22.87;95370.25;5107917;28;20473;-80
2023/08/23 10:42:19;;;;;;;6.65;5.03;;;;;;;38.81;21.82;95351.25;5106551;28;20048;-80
2023/08/23 10:44:59;;;;;;;9.65;6.18;;;;;;;39.04;20.71;95361.13;5093463;28;20059;-80
2023/08/23 10:47:25;;;;;;;12.07;5.72;;;;;;;38.87;21.04;95354.97;5083073;28;20424;-80
2023/08/23 10:49:52;;;;;;;6.93;5.72;;;;;;;38.81;20.88;95363.13;5114068;28;20054;-80
2023/08/23 10:52:18;;;;;;;6.10;5.45;;;;;;;38.79;21.06;95348.94;5086974;28;20080;-80
2023/08/23 10:54:43;;;;;;;7.22;6.03;;;;;;;38.22;22.12;95328.78;5093038;28;20027;-80
2023/08/23 10:57:09;;;;;;;7.00;5.47;;;;;;;37.70;22.56;95345.97;5094884;28;20118;-81
2023/08/23 10:59:36;;;;;;;23.20;7.15;;;;;;;36.89;25.35;95337.41;5081228;28;20032;-77
2023/08/23 11:02:02;;;;;;;15.32;7.30;;;;;;;36.96;25.67;95351.03;5112988;28;20085;-81
2023/08/23 11:04:28;;;;;;;16.35;6.40;;;;;;;36.98;25.79;95351.38;5090276;28;20028;-81
2023/08/23 11:06:54;;;;;;;14.07;6.55;;;;;;;36.81;26.27;95325.81;5092770;28;20060;-81
2023/08/23 11:09:19;;;;;;;16.02;7.07;;;;;;;36.84;27.49;95354.56;5088227;28;20115;-81
2023/08/23 11:11:45;;;;;;;10.10;6.82;;;;;;;36.25;27.76;95350.25;5094177;28;20027;-81
2023/08/23 11:14:13;;;;;;;9.32;7.07;;;;;;;35.64;28.46;95333.66;5094778;28;20504;-82
2023/08/23 11:16:39;;;;;;;14.10;6.20;;;;;;;35.55;28.64;95350.81;5078407;28;20036;-81
2023/08/23 11:19:06;;;;;;;9.77;6.97;;;;;;;35.16;28.48;95355.25;5078180;28;20527;-81
2023/08/23 11:21:32;;;;;;;10.10;6.53;;;;;;;34.64;28.90;95326.81;5057779;28;20128;-82
2023/08/23 11:24:04;;;;;;;11.00;6.30;;;;;;;34.63;28.33;95337.06;5061096;28;20131;-81
2023/08/23 11:26:33;;;;;;;12.50;6.15;;;;;;;34.30;27.88;95308.63;5078711;28;20111;-81
2023/08/23 11:28:59;;;;;;;11.75;6.30;;;;;;;34.32;27.87;95331.00;5060684;28;20490;-81